Nibulon 1 — UUAS4 — position and weather

sailwx.info

Track history (hours):
 
Tides and Currents Weather Stations Pressure Air Temp Water Temp Dewpoint Dewpoint Depression Visibility Wind Speed Wind Dir Waves Ship Positions

Nibulon 1

Last reported at 2017-Jan-22 07:33 UTC. Time now 2017-Jan-22 08:09 UTC.
Position N 46°57' E 031°59'.

Length 38 m; draft 2.6 m.

Type: Tug. MMSI: 272641000.

Date/timePositionNaut miles runAvg speedWind from/ knotsBaromVisibWave heightAir tempDewpointWater temp
2017-Jan-22 07:33N 46°57' E 031°59'0 0.0
2017-Jan-22 06:33N 46°57' E 031°59'2 1.9
2017-Jan-22 05:33N 46°56' E 032°01'6 6.0
2017-Jan-22 04:34N 46°51' E 031°56'5 4.9
2017-Jan-22 03:34N 46°46' E 031°53'4 4.5
2017-Jan-22 02:33N 46°42' E 031°56'5 4.6
2017-Jan-22 01:34N 46°38' E 031°54'5 4.9
2017-Jan-22 00:33N 46°36' E 031°47'3 2.8
2017-Jan-21 23:28N 46°36' E 031°43'0 0.0
2017-Jan-21 22:31N 46°36' E 031°43'0 0.0
2017-Jan-21 21:31N 46°36' E 031°43'0 0.0
2017-Jan-21 20:22N 46°36' E 031°43'1 1.3
2017-Jan-21 19:33N 46°36' E 031°42'4 3.6
2017-Jan-21 18:34N 46°36' E 031°36'1 0.1
2017-Jan-21 07:24N 46°36' E 031°34'5 0.5
2017-Jan-20 22:32N 46°35' E 031°28'7 5.8
2017-Jan-20 21:25N 46°35' E 031°18'0 0.0
2017-Jan-20 20:28N 46°35' E 031°18'0 0.0
2017-Jan-20 18:19N 46°35' E 031°18'0 0.0
2017-Jan-20 15:25N 46°35' E 031°18'1 0.4
2017-Jan-20 12:29N 46°35' E 031°20'10 4.7
2017-Jan-20 10:16N 46°35' E 031°35'2 2.5
2017-Jan-20 09:19N 46°36' E 031°38'1 0.9
2017-Jan-20 08:33N 46°36' E 031°39'4 3.5
2017-Jan-20 07:33N 46°36' E 031°44'4 3.8
2017-Jan-20 06:33N 46°36' E 031°50'4 3.8
2017-Jan-20 05:33N 46°38' E 031°55'3 2.9
2017-Jan-20 04:33N 46°41' E 031°56'3 2.9
2017-Jan-20 03:33N 46°44' E 031°56'2 2.1
2017-Jan-20 02:33N 46°45' E 031°54'3 3.3
2017-Jan-20 01:34N 46°48' E 031°53'4 3.7
2017-Jan-20 00:33N 46°51' E 031°57'3 3.0
2017-Jan-19 23:33N 46°53' E 031°60'3 2.9
2017-Jan-19 22:33N 46°56' E 032°01'1 1.4
2017-Jan-19 21:33N 46°57' E 031°59'0 0.1
2017-Jan-19 20:32N 46°57' E 031°59'0 0.0
2017-Jan-19 16:32N 46°57' E 031°59'0 0.0
2017-Jan-19 15:32N 46°57' E 031°59'0 0.0
2017-Jan-19 14:32N 46°57' E 031°59'0 0.0
2017-Jan-19 13:29N 46°57' E 031°59'0 0.0
2017-Jan-19 12:32N 46°57' E 031°59'0 0.0
2017-Jan-19 11:32N 46°57' E 031°59'0 0.3
2017-Jan-19 10:34N 46°57' E 031°59'1 0.5
2017-Jan-19 09:31N 46°57' E 031°59'0 0.0
2017-Jan-19 08:31N 46°57' E 031°59'0 0.0
2017-Jan-19 07:31N 46°57' E 031°59'0 0.1
2017-Jan-19 06:31N 46°56' E 031°59'0 0.2
2017-Jan-19 05:32N 46°57' E 031°59'0 0.0
2017-Jan-19 04:32N 46°57' E 031°59'0 0.0
2017-Jan-19 03:32N 46°57' E 031°59'0 0.0
2017-Jan-19 02:32N 46°57' E 031°59'0 0.0
2017-Jan-19 01:32N 46°57' E 031°59'0 0.0
2017-Jan-19 00:29N 46°57' E 031°59'0 0.0
2017-Jan-18 23:29N 46°57' E 031°59'0 0.0
2017-Jan-18 22:32N 46°57' E 031°59'0 0.0
2017-Jan-18 21:32N 46°57' E 031°59'0 0.0
2017-Jan-18 20:32N 46°57' E 031°59'0 0.0
2017-Jan-18 19:32N 46°57' E 031°59'0 0.0
2017-Jan-18 18:29N 46°57' E 031°59'0 0.0
2017-Jan-18 17:29N 46°57' E 031°59'0 0.0
2017-Jan-18 16:32N 46°57' E 031°59'0 0.0
2017-Jan-18 15:32N 46°57' E 031°59'0 0.0
2017-Jan-18 14:32N 46°57' E 031°59'0 0.0
2017-Jan-18 13:32N 46°57' E 031°59'0 0.2
2017-Jan-18 12:32N 46°56' E 031°59'0 0.2
2017-Jan-18 11:31N 46°57' E 031°59'0 0.0
2017-Jan-18 10:31N 46°57' E 031°59'0 0.0
2017-Jan-18 09:31N 46°57' E 031°59'0 0.0
2017-Jan-18 08:28N 46°57' E 031°59'0 0.0
2017-Jan-18 07:28N 46°57' E 031°59'0 0.0
2017-Jan-18 06:28N 46°57' E 031°59'0 0.0
2017-Jan-18 05:32N 46°57' E 031°59'0 0.0
2017-Jan-18 04:32N 46°57' E 031°59'0 0.0
2017-Jan-18 03:32N 46°57' E 031°59'0 0.0
2017-Jan-18 02:32N 46°57' E 031°59'0 0.0
2017-Jan-18 01:32N 46°57' E 031°59'0 0.0
2017-Jan-18 00:32N 46°57' E 031°59'0 0.0
2017-Jan-17 23:32N 46°57' E 031°59'0 0.0
2017-Jan-17 22:32N 46°57' E 031°59'0 0.0
2017-Jan-17 21:32N 46°57' E 031°59'0 0.0
2017-Jan-17 20:32N 46°57' E 031°59'0 0.0
2017-Jan-17 19:32N 46°57' E 031°59'0 0.0
2017-Jan-17 18:32N 46°57' E 031°59'0 0.0
2017-Jan-17 17:32N 46°57' E 031°59'0 0.0
2017-Jan-17 16:32N 46°57' E 031°59'0 0.0
2017-Jan-17 15:32N 46°57' E 031°59'0 0.0
2017-Jan-17 14:29N 46°57' E 031°59'0 0.0
2017-Jan-17 13:32N 46°57' E 031°59'0 0.0
2017-Jan-17 12:32N 46°57' E 031°59'0 0.0
2017-Jan-17 11:32N 46°57' E 031°59'0 0.0
2017-Jan-17 10:32N 46°57' E 031°59'0 0.3
2017-Jan-17 09:33N 46°57' E 031°59'0 0.3
2017-Jan-17 08:32N 46°57' E 031°59'0 0.0
2017-Jan-17 07:32N 46°57' E 031°59'0 0.0
2017-Jan-17 06:32N 46°57' E 031°59'0 0.0
2017-Jan-17 05:32N 46°57' E 031°59'0 0.0
2017-Jan-17 04:32N 46°57' E 031°59'0 0.0
2017-Jan-17 03:32N 46°57' E 031°59'0 0.0
2017-Jan-17 02:32N 46°57' E 031°59'0 0.0
2017-Jan-17 01:32N 46°57' E 031°59'0 0.0
2017-Jan-17 00:32N 46°57' E 031°59'0 0.0
2017-Jan-16 23:32N 46°57' E 031°59'0 0.0
2017-Jan-16 22:29N 46°57' E 031°59'0 0.0
2017-Jan-16 21:32N 46°57' E 031°59'0 0.0
2017-Jan-16 20:32N 46°57' E 031°59'0 0.0
2017-Jan-16 19:32N 46°57' E 031°59'0 0.0
2017-Jan-16 18:29N 46°57' E 031°59'0 0.0
2017-Jan-16 17:29N 46°57' E 031°59'0 0.0
2017-Jan-16 16:32N 46°57' E 031°59'0 0.0
2017-Jan-16 15:32N 46°57' E 031°59'0 0.0
2017-Jan-16 14:32N 46°57' E 031°59'0 0.0
2017-Jan-16 13:32N 46°57' E 031°59'0 0.0
2017-Jan-16 12:32N 46°57' E 031°59'0 0.0
2017-Jan-16 11:32N 46°57' E 031°59'0 0.0
2017-Jan-16 10:33N 46°57' E 031°59'0 0.0
2017-Jan-16 09:33N 46°57' E 031°59'0 0.0
2017-Jan-16 08:33N 46°57' E 031°59'0 0.0
2017-Jan-16 07:33N 46°57' E 031°59'0 0.0
2017-Jan-16 06:33N 46°57' E 031°59'0 0.0
2017-Jan-16 05:33N 46°57' E 031°59'0 0.0
2017-Jan-16 04:33N 46°57' E 031°59'0 0.0
2017-Jan-16 03:33N 46°57' E 031°59'0 0.0
2017-Jan-16 02:33N 46°57' E 031°59'0 0.0
2017-Jan-16 01:33N 46°57' E 031°59'0 0.0
2017-Jan-16 00:33N 46°57' E 031°59'0 0.0
2017-Jan-15 23:33N 46°57' E 031°59'0 0.0
2017-Jan-15 22:33N 46°57' E 031°59'0 0.0
2017-Jan-15 21:33N 46°57' E 031°59'0 0.0
2017-Jan-15 20:27N 46°57' E 031°59'0 0.0
2017-Jan-15 19:33N 46°57' E 031°59'0 0.0
2017-Jan-15 18:33N 46°57' E 031°59'0 0.0
2017-Jan-15 17:33N 46°57' E 031°59'0 0.0
2017-Jan-15 16:33N 46°57' E 031°59'0 0.0
2017-Jan-15 15:33N 46°57' E 031°59'0 0.0
2017-Jan-15 14:33N 46°57' E 031°59'0 0.0
2017-Jan-15 13:33N 46°57' E 031°59'0 0.0
2017-Jan-15 12:21N 46°57' E 031°59'0 0.0
2017-Jan-15 11:27N 46°57' E 031°59'0 0.0
2017-Jan-15 10:27N 46°57' E 031°59'0 0.0
2017-Jan-15 09:33N 46°57' E 031°59'0 0.0
2017-Jan-15 08:33N 46°57' E 031°59'0 0.0
2017-Jan-15 07:33N 46°57' E 031°59'0 0.0
2017-Jan-15 06:27N 46°57' E 031°59'0 0.0
2017-Jan-15 05:33N 46°57' E 031°59'0 0.0
2017-Jan-15 04:33N 46°57' E 031°59'0 0.0
2017-Jan-15 03:33N 46°57' E 031°59'0 0.0
2017-Jan-15 02:33N 46°57' E 031°59'0 0.0
2017-Jan-15 01:33N 46°57' E 031°59'0 0.1
2017-Jan-15 00:33N 46°57' E 031°59'0 0.1
2017-Jan-14 23:33N 46°57' E 031°59'0 0.0
2017-Jan-14 22:27N 46°57' E 031°59'0 0.0
2017-Jan-14 21:33N 46°57' E 031°59'0 0.0
2017-Jan-14 20:27N 46°57' E 031°59'0 0.0
2017-Jan-14 19:33N 46°57' E 031°59'0 0.0
2017-Jan-14 18:33N 46°57' E 031°59'0 0.0
2017-Jan-14 17:33N 46°57' E 031°59'0 0.0
2017-Jan-14 16:33N 46°57' E 031°59'0 0.0
2017-Jan-14 15:33N 46°57' E 031°59'0 0.0
2017-Jan-14 14:27N 46°57' E 031°59'0 0.0
2017-Jan-14 13:33N 46°57' E 031°59'0 0.0
2017-Jan-14 12:33N 46°57' E 031°59'0 0.0
2017-Jan-14 11:33N 46°57' E 031°59'0 0.0
2017-Jan-14 10:33N 46°57' E 031°59'0 0.0
2017-Jan-14 09:33N 46°57' E 031°59'0 0.0
2017-Jan-14 08:27N 46°57' E 031°59'0 0.0
2017-Jan-14 07:33N 46°57' E 031°59'0 0.0
2017-Jan-14 06:33N 46°57' E 031°59'0 0.0
2017-Jan-14 05:33N 46°57' E 031°59'0 0.0
2017-Jan-14 04:33N 46°57' E 031°59'0 0.0
2017-Jan-14 03:33N 46°57' E 031°59'0 0.0
2017-Jan-13 23:30N 46°57' E 031°59'0 0.0
2017-Jan-13 22:30N 46°57' E 031°59'0 0.0
2017-Jan-13 21:30N 46°57' E 031°59'0 0.0
2017-Jan-13 20:30N 46°57' E 031°59'0 0.0
2017-Jan-13 19:30N 46°57' E 031°59'0 0.0
2017-Jan-13 18:24N 46°57' E 031°59'0 0.0
2017-Jan-13 17:30N 46°57' E 031°59'0 0.0
2017-Jan-13 16:30N 46°57' E 031°59'0 0.0
2017-Jan-13 15:30N 46°57' E 031°59'0 0.0
2017-Jan-13 14:30N 46°57' E 031°59'0 0.0
2017-Jan-13 13:30N 46°57' E 031°59'0 0.0
2017-Jan-13 12:33N 46°57' E 031°59'0 0.0
2017-Jan-13 11:33N 46°57' E 031°59'0 0.0
2017-Jan-13 10:33N 46°57' E 031°59'0 0.0
2017-Jan-13 09:33N 46°57' E 031°59'0 0.0
2017-Jan-13 08:33N 46°57' E 031°59'0 0.0
2017-Jan-13 07:33N 46°57' E 031°59'0 0.0
2017-Jan-13 06:33N 46°57' E 031°59'0 0.0
2017-Jan-13 05:33N 46°57' E 031°59'0 0.0
2017-Jan-13 04:30N 46°57' E 031°59'0 0.0
2017-Jan-13 03:33N 46°57' E 031°59'0 0.0
2017-Jan-13 02:33N 46°57' E 031°59'0 0.0
2017-Jan-13 01:33N 46°57' E 031°59'0 0.0
2017-Jan-13 00:30N 46°57' E 031°59'0 0.0
2017-Jan-12 23:33N 46°57' E 031°59'0 0.0
2017-Jan-12 22:30N 46°57' E 031°59'0 0.0
2017-Jan-12 21:33N 46°57' E 031°59'0 0.0
2017-Jan-12 20:33N 46°57' E 031°59'0 0.0
2017-Jan-12 19:33N 46°57' E 031°59'0 0.0
2017-Jan-12 18:33N 46°57' E 031°59'0 0.0
2017-Jan-12 17:30N 46°57' E 031°59'0 0.0
2017-Jan-12 16:33N 46°57' E 031°59'0 0.0
2017-Jan-12 15:33N 46°57' E 031°59'0 0.0
2017-Jan-12 14:33N 46°57' E 031°59'0 0.3
2017-Jan-12 13:33N 46°57' E 031°59'0 0.3
2017-Jan-12 12:31N 46°57' E 031°59'0 0.0
2017-Jan-12 11:31N 46°57' E 031°59'0 0.0
2017-Jan-12 10:31N 46°57' E 031°59'0 0.0
2017-Jan-12 09:25N 46°57' E 031°59'0 0.0
2017-Jan-12 08:31N 46°57' E 031°59'  
Track history (hours):
 
Tides and Currents Weather Stations Pressure Air Temp Water Temp Dewpoint Dewpoint Depression Visibility Wind Speed Wind Dir Waves Ship Positions

Nibulon 1

Last reported at 2017-Jan-22 07:33 UTC. Time now 2017-Jan-22 08:09 UTC.
Position N 46°57' E 031°59'.

Length 38 m; draft 2.6 m.

Type: Tug. MMSI: 272641000.

Date/timePositionNaut miles runAvg speedWind from/ knotsBaromVisibWave heightAir tempDewpointWater temp
2017-Jan-22 07:33N 46°57' E 031°59'0 0.0
2017-Jan-22 06:33N 46°57' E 031°59'2 1.9
2017-Jan-22 05:33N 46°56' E 032°01'6 6.0
2017-Jan-22 04:34N 46°51' E 031°56'5 4.9
2017-Jan-22 03:34N 46°46' E 031°53'4 4.5
2017-Jan-22 02:33N 46°42' E 031°56'5 4.6
2017-Jan-22 01:34N 46°38' E 031°54'5 4.9
2017-Jan-22 00:33N 46°36' E 031°47'3 2.8
2017-Jan-21 23:28N 46°36' E 031°43'0 0.0
2017-Jan-21 22:31N 46°36' E 031°43'0 0.0
2017-Jan-21 21:31N 46°36' E 031°43'0 0.0
2017-Jan-21 20:22N 46°36' E 031°43'1 1.3
2017-Jan-21 19:33N 46°36' E 031°42'4 3.6
2017-Jan-21 18:34N 46°36' E 031°36'1 0.1
2017-Jan-21 07:24N 46°36' E 031°34'5 0.5
2017-Jan-20 22:32N 46°35' E 031°28'7 5.8
2017-Jan-20 21:25N 46°35' E 031°18'0 0.0
2017-Jan-20 20:28N 46°35' E 031°18'0 0.0
2017-Jan-20 18:19N 46°35' E 031°18'0 0.0
2017-Jan-20 15:25N 46°35' E 031°18'1 0.4
2017-Jan-20 12:29N 46°35' E 031°20'10 4.7
2017-Jan-20 10:16N 46°35' E 031°35'2 2.5
2017-Jan-20 09:19N 46°36' E 031°38'1 0.9
2017-Jan-20 08:33N 46°36' E 031°39'4 3.5
2017-Jan-20 07:33N 46°36' E 031°44'4 3.8
2017-Jan-20 06:33N 46°36' E 031°50'4 3.8
2017-Jan-20 05:33N 46°38' E 031°55'3 2.9
2017-Jan-20 04:33N 46°41' E 031°56'3 2.9
2017-Jan-20 03:33N 46°44' E 031°56'2 2.1
2017-Jan-20 02:33N 46°45' E 031°54'3 3.3
2017-Jan-20 01:34N 46°48' E 031°53'4 3.7
2017-Jan-20 00:33N 46°51' E 031°57'3 3.0
2017-Jan-19 23:33N 46°53' E 031°60'3 2.9
2017-Jan-19 22:33N 46°56' E 032°01'1 1.4
2017-Jan-19 21:33N 46°57' E 031°59'0 0.1
2017-Jan-19 20:32N 46°57' E 031°59'0 0.0
2017-Jan-19 16:32N 46°57' E 031°59'0 0.0
2017-Jan-19 15:32N 46°57' E 031°59'0 0.0
2017-Jan-19 14:32N 46°57' E 031°59'0 0.0
2017-Jan-19 13:29N 46°57' E 031°59'0 0.0
2017-Jan-19 12:32N 46°57' E 031°59'0 0.0
2017-Jan-19 11:32N 46°57' E 031°59'0 0.3
2017-Jan-19 10:34N 46°57' E 031°59'1 0.5
2017-Jan-19 09:31N 46°57' E 031°59'0 0.0
2017-Jan-19 08:31N 46°57' E 031°59'0 0.0
2017-Jan-19 07:31N 46°57' E 031°59'0 0.1
2017-Jan-19 06:31N 46°56' E 031°59'0 0.2
2017-Jan-19 05:32N 46°57' E 031°59'0 0.0
2017-Jan-19 04:32N 46°57' E 031°59'0 0.0
2017-Jan-19 03:32N 46°57' E 031°59'0 0.0
2017-Jan-19 02:32N 46°57' E 031°59'0 0.0
2017-Jan-19 01:32N 46°57' E 031°59'0 0.0
2017-Jan-19 00:29N 46°57' E 031°59'0 0.0
2017-Jan-18 23:29N 46°57' E 031°59'0 0.0
2017-Jan-18 22:32N 46°57' E 031°59'0 0.0
2017-Jan-18 21:32N 46°57' E 031°59'0 0.0
2017-Jan-18 20:32N 46°57' E 031°59'0 0.0
2017-Jan-18 19:32N 46°57' E 031°59'0 0.0
2017-Jan-18 18:29N 46°57' E 031°59'0 0.0
2017-Jan-18 17:29N 46°57' E 031°59'0 0.0
2017-Jan-18 16:32N 46°57' E 031°59'0 0.0
2017-Jan-18 15:32N 46°57' E 031°59'0 0.0
2017-Jan-18 14:32N 46°57' E 031°59'0 0.0
2017-Jan-18 13:32N 46°57' E 031°59'0 0.2
2017-Jan-18 12:32N 46°56' E 031°59'0 0.2
2017-Jan-18 11:31N 46°57' E 031°59'0 0.0
2017-Jan-18 10:31N 46°57' E 031°59'0 0.0
2017-Jan-18 09:31N 46°57' E 031°59'0 0.0
2017-Jan-18 08:28N 46°57' E 031°59'0 0.0
2017-Jan-18 07:28N 46°57' E 031°59'0 0.0
2017-Jan-18 06:28N 46°57' E 031°59'0 0.0
2017-Jan-18 05:32N 46°57' E 031°59'0 0.0
2017-Jan-18 04:32N 46°57' E 031°59'0 0.0
2017-Jan-18 03:32N 46°57' E 031°59'0 0.0
2017-Jan-18 02:32N 46°57' E 031°59'0 0.0
2017-Jan-18 01:32N 46°57' E 031°59'0 0.0
2017-Jan-18 00:32N 46°57' E 031°59'0 0.0
2017-Jan-17 23:32N 46°57' E 031°59'0 0.0
2017-Jan-17 22:32N 46°57' E 031°59'0 0.0
2017-Jan-17 21:32N 46°57' E 031°59'0 0.0
2017-Jan-17 20:32N 46°57' E 031°59'0 0.0
2017-Jan-17 19:32N 46°57' E 031°59'0 0.0
2017-Jan-17 18:32N 46°57' E 031°59'0 0.0
2017-Jan-17 17:32N 46°57' E 031°59'0 0.0
2017-Jan-17 16:32N 46°57' E 031°59'0 0.0
2017-Jan-17 15:32N 46°57' E 031°59'0 0.0
2017-Jan-17 14:29N 46°57' E 031°59'0 0.0
2017-Jan-17 13:32N 46°57' E 031°59'0 0.0
2017-Jan-17 12:32N 46°57' E 031°59'0 0.0
2017-Jan-17 11:32N 46°57' E 031°59'0 0.0
2017-Jan-17 10:32N 46°57' E 031°59'0 0.3
2017-Jan-17 09:33N 46°57' E 031°59'0 0.3
2017-Jan-17 08:32N 46°57' E 031°59'0 0.0
2017-Jan-17 07:32N 46°57' E 031°59'0 0.0
2017-Jan-17 06:32N 46°57' E 031°59'0 0.0
2017-Jan-17 05:32N 46°57' E 031°59'0 0.0
2017-Jan-17 04:32N 46°57' E 031°59'0 0.0
2017-Jan-17 03:32N 46°57' E 031°59'0 0.0
2017-Jan-17 02:32N 46°57' E 031°59'0 0.0
2017-Jan-17 01:32N 46°57' E 031°59'0 0.0
2017-Jan-17 00:32N 46°57' E 031°59'0 0.0
2017-Jan-16 23:32N 46°57' E 031°59'0 0.0
2017-Jan-16 22:29N 46°57' E 031°59'0 0.0
2017-Jan-16 21:32N 46°57' E 031°59'0 0.0
2017-Jan-16 20:32N 46°57' E 031°59'0 0.0
2017-Jan-16 19:32N 46°57' E 031°59'0 0.0
2017-Jan-16 18:29N 46°57' E 031°59'0 0.0
2017-Jan-16 17:29N 46°57' E 031°59'0 0.0
2017-Jan-16 16:32N 46°57' E 031°59'0 0.0
2017-Jan-16 15:32N 46°57' E 031°59'0 0.0
2017-Jan-16 14:32N 46°57' E 031°59'0 0.0
2017-Jan-16 13:32N 46°57' E 031°59'0 0.0
2017-Jan-16 12:32N 46°57' E 031°59'0 0.0
2017-Jan-16 11:32N 46°57' E 031°59'0 0.0
2017-Jan-16 10:33N 46°57' E 031°59'0 0.0
2017-Jan-16 09:33N 46°57' E 031°59'0 0.0
2017-Jan-16 08:33N 46°57' E 031°59'0 0.0
2017-Jan-16 07:33N 46°57' E 031°59'0 0.0
2017-Jan-16 06:33N 46°57' E 031°59'0 0.0
2017-Jan-16 05:33N 46°57' E 031°59'0 0.0
2017-Jan-16 04:33N 46°57' E 031°59'0 0.0
2017-Jan-16 03:33N 46°57' E 031°59'0 0.0
2017-Jan-16 02:33N 46°57' E 031°59'0 0.0
2017-Jan-16 01:33N 46°57' E 031°59'0 0.0
2017-Jan-16 00:33N 46°57' E 031°59'0 0.0
2017-Jan-15 23:33N 46°57' E 031°59'0 0.0
2017-Jan-15 22:33N 46°57' E 031°59'0 0.0
2017-Jan-15 21:33N 46°57' E 031°59'0 0.0
2017-Jan-15 20:27N 46°57' E 031°59'0 0.0
2017-Jan-15 19:33N 46°57' E 031°59'0 0.0
2017-Jan-15 18:33N 46°57' E 031°59'0 0.0
2017-Jan-15 17:33N 46°57' E 031°59'0 0.0
2017-Jan-15 16:33N 46°57' E 031°59'0 0.0
2017-Jan-15 15:33N 46°57' E 031°59'0 0.0
2017-Jan-15 14:33N 46°57' E 031°59'0 0.0
2017-Jan-15 13:33N 46°57' E 031°59'0 0.0
2017-Jan-15 12:21N 46°57' E 031°59'0 0.0
2017-Jan-15 11:27N 46°57' E 031°59'0 0.0
2017-Jan-15 10:27N 46°57' E 031°59'0 0.0
2017-Jan-15 09:33N 46°57' E 031°59'0 0.0
2017-Jan-15 08:33N 46°57' E 031°59'0 0.0
2017-Jan-15 07:33N 46°57' E 031°59'0 0.0
2017-Jan-15 06:27N 46°57' E 031°59'0 0.0
2017-Jan-15 05:33N 46°57' E 031°59'0 0.0
2017-Jan-15 04:33N 46°57' E 031°59'0 0.0
2017-Jan-15 03:33N 46°57' E 031°59'0 0.0
2017-Jan-15 02:33N 46°57' E 031°59'0 0.0
2017-Jan-15 01:33N 46°57' E 031°59'0 0.1
2017-Jan-15 00:33N 46°57' E 031°59'0 0.1
2017-Jan-14 23:33N 46°57' E 031°59'0 0.0
2017-Jan-14 22:27N 46°57' E 031°59'0 0.0
2017-Jan-14 21:33N 46°57' E 031°59'0 0.0
2017-Jan-14 20:27N 46°57' E 031°59'0 0.0
2017-Jan-14 19:33N 46°57' E 031°59'0 0.0
2017-Jan-14 18:33N 46°57' E 031°59'0 0.0
2017-Jan-14 17:33N 46°57' E 031°59'0 0.0
2017-Jan-14 16:33N 46°57' E 031°59'0 0.0
2017-Jan-14 15:33N 46°57' E 031°59'0 0.0
2017-Jan-14 14:27N 46°57' E 031°59'0 0.0
2017-Jan-14 13:33N 46°57' E 031°59'0 0.0
2017-Jan-14 12:33N 46°57' E 031°59'0 0.0
2017-Jan-14 11:33N 46°57' E 031°59'0 0.0
2017-Jan-14 10:33N 46°57' E 031°59'0 0.0
2017-Jan-14 09:33N 46°57' E 031°59'0 0.0
2017-Jan-14 08:27N 46°57' E 031°59'0 0.0
2017-Jan-14 07:33N 46°57' E 031°59'0 0.0
2017-Jan-14 06:33N 46°57' E 031°59'0 0.0
2017-Jan-14 05:33N 46°57' E 031°59'0 0.0
2017-Jan-14 04:33N 46°57' E 031°59'0 0.0
2017-Jan-14 03:33N 46°57' E 031°59'0 0.0
2017-Jan-13 23:30N 46°57' E 031°59'0 0.0
2017-Jan-13 22:30N 46°57' E 031°59'0 0.0
2017-Jan-13 21:30N 46°57' E 031°59'0 0.0
2017-Jan-13 20:30N 46°57' E 031°59'0 0.0
2017-Jan-13 19:30N 46°57' E 031°59'0 0.0
2017-Jan-13 18:24N 46°57' E 031°59'0 0.0
2017-Jan-13 17:30N 46°57' E 031°59'0 0.0
2017-Jan-13 16:30N 46°57' E 031°59'0 0.0
2017-Jan-13 15:30N 46°57' E 031°59'0 0.0
2017-Jan-13 14:30N 46°57' E 031°59'0 0.0
2017-Jan-13 13:30N 46°57' E 031°59'0 0.0
2017-Jan-13 12:33N 46°57' E 031°59'0 0.0
2017-Jan-13 11:33N 46°57' E 031°59'0 0.0
2017-Jan-13 10:33N 46°57' E 031°59'0 0.0
2017-Jan-13 09:33N 46°57' E 031°59'0 0.0
2017-Jan-13 08:33N 46°57' E 031°59'0 0.0
2017-Jan-13 07:33N 46°57' E 031°59'0 0.0
2017-Jan-13 06:33N 46°57' E 031°59'0 0.0
2017-Jan-13 05:33N 46°57' E 031°59'0 0.0
2017-Jan-13 04:30N 46°57' E 031°59'0 0.0
2017-Jan-13 03:33N 46°57' E 031°59'0 0.0
2017-Jan-13 02:33N 46°57' E 031°59'0 0.0
2017-Jan-13 01:33N 46°57' E 031°59'0 0.0
2017-Jan-13 00:30N 46°57' E 031°59'0 0.0
2017-Jan-12 23:33N 46°57' E 031°59'0 0.0
2017-Jan-12 22:30N 46°57' E 031°59'0 0.0
2017-Jan-12 21:33N 46°57' E 031°59'0 0.0
2017-Jan-12 20:33N 46°57' E 031°59'0 0.0
2017-Jan-12 19:33N 46°57' E 031°59'0 0.0
2017-Jan-12 18:33N 46°57' E 031°59'0 0.0
2017-Jan-12 17:30N 46°57' E 031°59'0 0.0
2017-Jan-12 16:33N 46°57' E 031°59'0 0.0
2017-Jan-12 15:33N 46°57' E 031°59'0 0.0
2017-Jan-12 14:33N 46°57' E 031°59'0 0.3
2017-Jan-12 13:33N 46°57' E 031°59'0 0.3
2017-Jan-12 12:31N 46°57' E 031°59'0 0.0
2017-Jan-12 11:31N 46°57' E 031°59'0 0.0
2017-Jan-12 10:31N 46°57' E 031°59'0 0.0
2017-Jan-12 09:25N 46°57' E 031°59'0 0.0
2017-Jan-12 08:31N 46°57' E 031°59'  

Dump ship's entire track history